Terminal Aerodrome Forecast
Issued by NWS Huntsville, AL

Home | Current Version | Previous Version | Text Only | Print | Product List | Glossary On
Versions: 1 2 3 4 5 6 7 8 9 10 11 12
000
FTUS44 KHUN 261739
TAFMSL
TAF
KMSL 261739Z 2618/2718 21010KT P6SM VCTS SCT050CB SCT300
      TEMPO 2620/2623 -TSRA BKN035CB
     FM270100 16006KT P6SM SCT050 BKN300
     FM270900 14004KT P6SM SCT030 SCT070 BKN250
     FM271300 17008KT P6SM SCT060 BKN150=

USA.gov is the U.S. government's official web portal to all federal, state and local government web resources and services.